Aventura, Florida
Current Conditions -  °F | °C
As of 2:20 PM on Thursday 23 Oct 2014 (Local Time) from KHWO Reporting Station
Overcast Overcast  
Wind Chill: 79°   Ceiling: 1500
Heat Index: 82°   Visibility: 10mi
Dew Point: 72°   Wind: 15mph
Humidity: 79%   Direction: 30°NNE
Pressure: 29.9"   Gusts: NA
Location:  25.9536°N, 80.1568°W
Report Text: KHWO 231820Z 03013KT 10SM BKN015 BKN021 OVC027 26/22 A2990 RMK AO2 T02610222
Loading
Personal Weather Stations






























Interactive Weather Map New forecast layout! Learn more

10-Day Weather Forecast

Advertisements
Track Severe Weather on mobile